sensor_id;sensor_type;location;lat;lon;timestamp;P1;durP1;ratioP1;P2;durP2;ratioP2
20411;SDS011;10365;52.578;8.138;2023-07-29T00:01:39;16.08;;;11.43;;
20411;SDS011;10365;52.578;8.138;2023-07-29T00:04:06;16.73;;;11.57;;
20411;SDS011;10365;52.578;8.138;2023-07-29T00:06:31;18.42;;;12.13;;
20411;SDS011;10365;52.578;8.138;2023-07-29T00:08:56;16.50;;;11.93;;
20411;SDS011;10365;52.578;8.138;2023-07-29T00:11:22;18.27;;;11.95;;
20411;SDS011;10365;52.578;8.138;2023-07-29T00:13:47;18.38;;;12.20;;
20411;SDS011;10365;52.578;8.138;2023-07-29T00:16:15;20.27;;;11.90;;
20411;SDS011;10365;52.578;8.138;2023-07-29T00:18:42;17.92;;;11.88;;
20411;SDS011;10365;52.578;8.138;2023-07-29T00:21:07;23.08;;;12.63;;
20411;SDS011;10365;52.578;8.138;2023-07-29T00:23:33;17.45;;;12.55;;
20411;SDS011;10365;52.578;8.138;2023-07-29T00:25:58;18.08;;;12.50;;
20411;SDS011;10365;52.578;8.138;2023-07-29T00:28:24;21.48;;;14.23;;
20411;SDS011;10365;52.578;8.138;2023-07-29T00:30:49;21.13;;;14.20;;
20411;SDS011;10365;52.578;8.138;2023-07-29T00:33:14;19.38;;;12.90;;
20411;SDS011;10365;52.578;8.138;2023-07-29T00:35:40;20.35;;;13.98;;
20411;SDS011;10365;52.578;8.138;2023-07-29T00:40:35;22.80;;;13.50;;
20411;SDS011;10365;52.578;8.138;2023-07-29T00:43:00;23.70;;;14.60;;
20411;SDS011;10365;52.578;8.138;2023-07-29T00:45:26;25.70;;;13.82;;
20411;SDS011;10365;52.578;8.138;2023-07-29T00:47:52;24.83;;;14.48;;
20411;SDS011;10365;52.578;8.138;2023-07-29T00:50:17;22.00;;;14.13;;
20411;SDS011;10365;52.578;8.138;2023-07-29T00:52:43;19.27;;;13.40;;
20411;SDS011;10365;52.578;8.138;2023-07-29T00:55:08;21.55;;;14.25;;
20411;SDS011;10365;52.578;8.138;2023-07-29T00:57:34;23.45;;;14.52;;
20411;SDS011;10365;52.578;8.138;2023-07-29T01:00:00;21.75;;;13.00;;
20411;SDS011;10365;52.578;8.138;2023-07-29T01:02:26;24.27;;;14.75;;
20411;SDS011;10365;52.578;8.138;2023-07-29T01:04:52;20.67;;;13.27;;
20411;SDS011;10365;52.578;8.138;2023-07-29T01:07:22;23.95;;;14.73;;
20411;SDS011;10365;52.578;8.138;2023-07-29T01:12:20;21.40;;;14.32;;
20411;SDS011;10365;52.578;8.138;2023-07-29T01:15:01;23.17;;;14.30;;
20411;SDS011;10365;52.578;8.138;2023-07-29T01:17:32;21.10;;;13.50;;
20411;SDS011;10365;52.578;8.138;2023-07-29T01:20:04;20.83;;;14.07;;
20411;SDS011;10365;52.578;8.138;2023-07-29T01:22:36;24.95;;;13.27;;
20411;SDS011;10365;52.578;8.138;2023-07-29T01:25:02;21.60;;;13.57;;
20411;SDS011;10365;52.578;8.138;2023-07-29T01:27:27;20.85;;;12.65;;
20411;SDS011;10365;52.578;8.138;2023-07-29T01:29:53;17.98;;;12.13;;
20411;SDS011;10365;52.578;8.138;2023-07-29T01:32:23;20.50;;;13.48;;
20411;SDS011;10365;52.578;8.138;2023-07-29T01:34:59;21.92;;;13.90;;
20411;SDS011;10365;52.578;8.138;2023-07-29T01:37:27;23.33;;;13.98;;
20411;SDS011;10365;52.578;8.138;2023-07-29T01:39:56;20.02;;;13.10;;
20411;SDS011;10365;52.578;8.138;2023-07-29T01:42:23;23.02;;;14.18;;
20411;SDS011;10365;52.578;8.138;2023-07-29T01:44:49;23.70;;;13.90;;
20411;SDS011;10365;52.578;8.138;2023-07-29T01:47:14;21.83;;;14.07;;
20411;SDS011;10365;52.578;8.138;2023-07-29T01:49:40;21.58;;;13.55;;
20411;SDS011;10365;52.578;8.138;2023-07-29T01:52:06;20.50;;;13.18;;
20411;SDS011;10365;52.578;8.138;2023-07-29T01:54:31;22.52;;;14.32;;
20411;SDS011;10365;52.578;8.138;2023-07-29T01:56:56;18.40;;;12.98;;
20411;SDS011;10365;52.578;8.138;2023-07-29T01:59:22;23.50;;;13.95;;
20411;SDS011;10365;52.578;8.138;2023-07-29T02:01:47;21.55;;;13.48;;
20411;SDS011;10365;52.578;8.138;2023-07-29T02:04:14;21.08;;;12.82;;
20411;SDS011;10365;52.578;8.138;2023-07-29T02:06:39;21.45;;;13.60;;
20411;SDS011;10365;52.578;8.138;2023-07-29T02:09:05;21.08;;;13.55;;
20411;SDS011;10365;52.578;8.138;2023-07-29T02:11:30;19.80;;;13.75;;
20411;SDS011;10365;52.578;8.138;2023-07-29T02:13:56;22.70;;;14.65;;
20411;SDS011;10365;52.578;8.138;2023-07-29T02:16:22;20.17;;;13.75;;
20411;SDS011;10365;52.578;8.138;2023-07-29T02:18:48;23.27;;;13.90;;
20411;SDS011;10365;52.578;8.138;2023-07-29T02:21:15;18.38;;;13.00;;
20411;SDS011;10365;52.578;8.138;2023-07-29T02:23:40;18.45;;;12.60;;
20411;SDS011;10365;52.578;8.138;2023-07-29T02:26:05;18.95;;;13.02;;
20411;SDS011;10365;52.578;8.138;2023-07-29T02:28:31;17.52;;;12.75;;
20411;SDS011;10365;52.578;8.138;2023-07-29T02:33:54;21.00;;;14.27;;
20411;SDS011;10365;52.578;8.138;2023-07-29T02:36:20;18.38;;;12.63;;
20411;SDS011;10365;52.578;8.138;2023-07-29T02:38:46;21.35;;;13.43;;
20411;SDS011;10365;52.578;8.138;2023-07-29T02:41:11;21.90;;;14.57;;
20411;SDS011;10365;52.578;8.138;2023-07-29T02:43:38;22.13;;;14.82;;
20411;SDS011;10365;52.578;8.138;2023-07-29T02:46:03;23.50;;;15.10;;
20411;SDS011;10365;52.578;8.138;2023-07-29T02:48:29;22.95;;;15.18;;
20411;SDS011;10365;52.578;8.138;2023-07-29T02:50:55;21.83;;;15.48;;
20411;SDS011;10365;52.578;8.138;2023-07-29T02:53:21;23.75;;;15.88;;
20411;SDS011;10365;52.578;8.138;2023-07-29T02:55:46;24.95;;;17.00;;
20411;SDS011;10365;52.578;8.138;2023-07-29T02:58:12;27.30;;;17.35;;
20411;SDS011;10365;52.578;8.138;2023-07-29T03:00:37;28.85;;;18.42;;
20411;SDS011;10365;52.578;8.138;2023-07-29T03:03:03;28.95;;;18.88;;
20411;SDS011;10365;52.578;8.138;2023-07-29T03:05:29;29.50;;;18.33;;
20411;SDS011;10365;52.578;8.138;2023-07-29T03:07:55;28.85;;;17.40;;
20411;SDS011;10365;52.578;8.138;2023-07-29T03:10:20;29.25;;;17.60;;
20411;SDS011;10365;52.578;8.138;2023-07-29T03:12:46;30.90;;;17.90;;
20411;SDS011;10365;52.578;8.138;2023-07-29T03:15:12;30.98;;;18.50;;
20411;SDS011;10365;52.578;8.138;2023-07-29T03:17:37;31.42;;;19.27;;
20411;SDS011;10365;52.578;8.138;2023-07-29T03:20:03;30.95;;;17.83;;
20411;SDS011;10365;52.578;8.138;2023-07-29T03:22:28;29.55;;;17.50;;
20411;SDS011;10365;52.578;8.138;2023-07-29T03:24:54;30.50;;;17.83;;
20411;SDS011;10365;52.578;8.138;2023-07-29T03:27:19;26.17;;;17.88;;
20411;SDS011;10365;52.578;8.138;2023-07-29T03:29:45;33.88;;;18.85;;
20411;SDS011;10365;52.578;8.138;2023-07-29T03:32:11;35.65;;;19.50;;
20411;SDS011;10365;52.578;8.138;2023-07-29T03:34:36;51.70;;;20.15;;
20411;SDS011;10365;52.578;8.138;2023-07-29T03:37:01;34.83;;;20.98;;
20411;SDS011;10365;52.578;8.138;2023-07-29T03:39:27;36.83;;;21.08;;
20411;SDS011;10365;52.578;8.138;2023-07-29T03:41:52;32.28;;;21.13;;
20411;SDS011;10365;52.578;8.138;2023-07-29T03:44:18;35.08;;;20.25;;
20411;SDS011;10365;52.578;8.138;2023-07-29T03:46:44;28.23;;;20.05;;
20411;SDS011;10365;52.578;8.138;2023-07-29T03:49:10;34.95;;;20.95;;
20411;SDS011;10365;52.578;8.138;2023-07-29T03:51:35;33.47;;;21.60;;
20411;SDS011;10365;52.578;8.138;2023-07-29T03:54:00;31.80;;;21.23;;
20411;SDS011;10365;52.578;8.138;2023-07-29T03:56:26;37.50;;;21.02;;
20411;SDS011;10365;52.578;8.138;2023-07-29T03:58:52;35.75;;;21.80;;
20411;SDS011;10365;52.578;8.138;2023-07-29T04:01:17;31.95;;;20.50;;
20411;SDS011;10365;52.578;8.138;2023-07-29T04:03:44;34.65;;;21.85;;
20411;SDS011;10365;52.578;8.138;2023-07-29T04:06:09;37.33;;;22.02;;
20411;SDS011;10365;52.578;8.138;2023-07-29T04:08:35;34.42;;;22.15;;
20411;SDS011;10365;52.578;8.138;2023-07-29T04:11:00;34.17;;;21.65;;
20411;SDS011;10365;52.578;8.138;2023-07-29T04:13:25;34.08;;;21.95;;
20411;SDS011;10365;52.578;8.138;2023-07-29T04:18:27;34.10;;;22.13;;
20411;SDS011;10365;52.578;8.138;2023-07-29T04:20:52;33.28;;;21.63;;
20411;SDS011;10365;52.578;8.138;2023-07-29T04:23:18;35.13;;;22.15;;
20411;SDS011;10365;52.578;8.138;2023-07-29T04:25:44;34.65;;;21.73;;
20411;SDS011;10365;52.578;8.138;2023-07-29T04:28:09;35.63;;;21.30;;
20411;SDS011;10365;52.578;8.138;2023-07-29T04:30:35;34.42;;;21.55;;
20411;SDS011;10365;52.578;8.138;2023-07-29T04:33:01;32.08;;;21.55;;
20411;SDS011;10365;52.578;8.138;2023-07-29T04:35:27;31.50;;;19.83;;
20411;SDS011;10365;52.578;8.138;2023-07-29T04:37:53;29.35;;;20.83;;
20411;SDS011;10365;52.578;8.138;2023-07-29T04:40:18;33.67;;;21.85;;
20411;SDS011;10365;52.578;8.138;2023-07-29T04:42:44;32.05;;;21.00;;
20411;SDS011;10365;52.578;8.138;2023-07-29T04:45:09;27.23;;;19.10;;
20411;SDS011;10365;52.578;8.138;2023-07-29T04:47:35;27.65;;;19.15;;
20411;SDS011;10365;52.578;8.138;2023-07-29T04:50:01;26.95;;;19.40;;
20411;SDS011;10365;52.578;8.138;2023-07-29T04:52:27;25.02;;;18.42;;
20411;SDS011;10365;52.578;8.138;2023-07-29T04:54:52;30.08;;;19.80;;
20411;SDS011;10365;52.578;8.138;2023-07-29T04:57:18;26.40;;;19.40;;
20411;SDS011;10365;52.578;8.138;2023-07-29T04:59:43;28.35;;;19.55;;
20411;SDS011;10365;52.578;8.138;2023-07-29T05:02:09;31.67;;;19.60;;
20411;SDS011;10365;52.578;8.138;2023-07-29T05:04:34;32.22;;;19.67;;
20411;SDS011;10365;52.578;8.138;2023-07-29T05:07:00;31.63;;;20.38;;
20411;SDS011;10365;52.578;8.138;2023-07-29T05:09:26;29.25;;;20.25;;
20411;SDS011;10365;52.578;8.138;2023-07-29T05:11:51;30.05;;;19.90;;
20411;SDS011;10365;52.578;8.138;2023-07-29T05:14:17;27.48;;;19.63;;
20411;SDS011;10365;52.578;8.138;2023-07-29T05:16:43;28.00;;;19.73;;
20411;SDS011;10365;52.578;8.138;2023-07-29T05:19:12;25.55;;;19.55;;
20411;SDS011;10365;52.578;8.138;2023-07-29T05:21:38;28.85;;;19.70;;
20411;SDS011;10365;52.578;8.138;2023-07-29T05:24:04;26.40;;;19.85;;
20411;SDS011;10365;52.578;8.138;2023-07-29T05:26:29;27.52;;;19.25;;
20411;SDS011;10365;52.578;8.138;2023-07-29T05:28:55;26.38;;;19.50;;
20411;SDS011;10365;52.578;8.138;2023-07-29T05:31:21;28.33;;;19.48;;
20411;SDS011;10365;52.578;8.138;2023-07-29T05:33:46;23.83;;;18.52;;
20411;SDS011;10365;52.578;8.138;2023-07-29T05:36:12;25.67;;;18.55;;
20411;SDS011;10365;52.578;8.138;2023-07-29T05:38:37;23.98;;;17.02;;
20411;SDS011;10365;52.578;8.138;2023-07-29T05:41:03;22.58;;;17.58;;
20411;SDS011;10365;52.578;8.138;2023-07-29T05:43:28;24.08;;;16.88;;
20411;SDS011;10365;52.578;8.138;2023-07-29T05:45:54;25.38;;;17.50;;
20411;SDS011;10365;52.578;8.138;2023-07-29T05:48:20;23.58;;;18.27;;
20411;SDS011;10365;52.578;8.138;2023-07-29T05:50:46;21.02;;;16.13;;
20411;SDS011;10365;52.578;8.138;2023-07-29T05:53:11;21.23;;;16.63;;
20411;SDS011;10365;52.578;8.138;2023-07-29T05:55:37;23.02;;;17.83;;
20411;SDS011;10365;52.578;8.138;2023-07-29T05:58:02;20.98;;;17.23;;
20411;SDS011;10365;52.578;8.138;2023-07-29T06:00:28;21.02;;;15.77;;
20411;SDS011;10365;52.578;8.138;2023-07-29T06:02:53;18.88;;;15.18;;
20411;SDS011;10365;52.578;8.138;2023-07-29T06:05:21;20.40;;;15.05;;
20411;SDS011;10365;52.578;8.138;2023-07-29T06:07:46;18.05;;;15.07;;
20411;SDS011;10365;52.578;8.138;2023-07-29T06:10:13;18.70;;;14.02;;
20411;SDS011;10365;52.578;8.138;2023-07-29T06:12:39;16.70;;;13.77;;
20411;SDS011;10365;52.578;8.138;2023-07-29T06:15:05;15.38;;;13.40;;
20411;SDS011;10365;52.578;8.138;2023-07-29T06:17:30;17.33;;;13.88;;
20411;SDS011;10365;52.578;8.138;2023-07-29T06:19:56;17.83;;;14.38;;
20411;SDS011;10365;52.578;8.138;2023-07-29T06:22:21;17.00;;;12.85;;
20411;SDS011;10365;52.578;8.138;2023-07-29T06:24:47;16.92;;;12.80;;
20411;SDS011;10365;52.578;8.138;2023-07-29T06:27:13;16.08;;;12.90;;
20411;SDS011;10365;52.578;8.138;2023-07-29T06:29:39;13.82;;;11.23;;
20411;SDS011;10365;52.578;8.138;2023-07-29T06:32:05;12.35;;;10.80;;
20411;SDS011;10365;52.578;8.138;2023-07-29T06:34:31;14.35;;;10.43;;
20411;SDS011;10365;52.578;8.138;2023-07-29T06:36:56;14.30;;;10.20;;
20411;SDS011;10365;52.578;8.138;2023-07-29T06:39:22;12.20;;;9.82;;
20411;SDS011;10365;52.578;8.138;2023-07-29T06:41:47;10.73;;;8.68;;
20411;SDS011;10365;52.578;8.138;2023-07-29T06:44:15;13.63;;;9.77;;
20411;SDS011;10365;52.578;8.138;2023-07-29T06:46:40;13.23;;;8.88;;
20411;SDS011;10365;52.578;8.138;2023-07-29T06:49:05;11.02;;;8.85;;
20411;SDS011;10365;52.578;8.138;2023-07-29T06:51:31;10.68;;;9.05;;
20411;SDS011;10365;52.578;8.138;2023-07-29T06:53:59;10.93;;;8.10;;
20411;SDS011;10365;52.578;8.138;2023-07-29T06:56:25;11.00;;;7.40;;
20411;SDS011;10365;52.578;8.138;2023-07-29T06:58:50;10.13;;;7.47;;
20411;SDS011;10365;52.578;8.138;2023-07-29T07:01:15;11.68;;;8.00;;
20411;SDS011;10365;52.578;8.138;2023-07-29T07:03:41;11.48;;;9.07;;
20411;SDS011;10365;52.578;8.138;2023-07-29T07:06:06;11.20;;;9.23;;
20411;SDS011;10365;52.578;8.138;2023-07-29T07:08:31;10.93;;;8.90;;
20411;SDS011;10365;52.578;8.138;2023-07-29T07:10:57;12.35;;;9.35;;
20411;SDS011;10365;52.578;8.138;2023-07-29T07:13:22;10.05;;;8.90;;
20411;SDS011;10365;52.578;8.138;2023-07-29T07:15:47;10.73;;;8.63;;
20411;SDS011;10365;52.578;8.138;2023-07-29T07:18:13;12.07;;;8.55;;
20411;SDS011;10365;52.578;8.138;2023-07-29T07:20:38;10.88;;;8.43;;
20411;SDS011;10365;52.578;8.138;2023-07-29T07:23:04;10.80;;;8.43;;
20411;SDS011;10365;52.578;8.138;2023-07-29T07:25:30;11.20;;;8.35;;
20411;SDS011;10365;52.578;8.138;2023-07-29T07:27:56;10.27;;;7.88;;
20411;SDS011;10365;52.578;8.138;2023-07-29T07:30:21;11.40;;;8.20;;
20411;SDS011;10365;52.578;8.138;2023-07-29T07:32:46;8.27;;;6.93;;
20411;SDS011;10365;52.578;8.138;2023-07-29T07:35:12;10.23;;;7.40;;
20411;SDS011;10365;52.578;8.138;2023-07-29T07:37:37;11.00;;;7.00;;
20411;SDS011;10365;52.578;8.138;2023-07-29T07:40:03;8.90;;;7.53;;
20411;SDS011;10365;52.578;8.138;2023-07-29T07:42:28;9.77;;;7.25;;
20411;SDS011;10365;52.578;8.138;2023-07-29T07:44:54;8.48;;;6.57;;
20411;SDS011;10365;52.578;8.138;2023-07-29T07:47:19;11.18;;;7.93;;
20411;SDS011;10365;52.578;8.138;2023-07-29T07:49:45;9.30;;;8.23;;
20411;SDS011;10365;52.578;8.138;2023-07-29T07:52:10;13.40;;;8.23;;
20411;SDS011;10365;52.578;8.138;2023-07-29T07:54:36;12.65;;;9.57;;
20411;SDS011;10365;52.578;8.138;2023-07-29T07:57:01;12.63;;;9.88;;
20411;SDS011;10365;52.578;8.138;2023-07-29T07:59:27;11.90;;;8.55;;
20411;SDS011;10365;52.578;8.138;2023-07-29T08:01:52;12.85;;;9.68;;
20411;SDS011;10365;52.578;8.138;2023-07-29T08:04:17;13.02;;;8.63;;
20411;SDS011;10365;52.578;8.138;2023-07-29T08:06:43;12.07;;;9.40;;
20411;SDS011;10365;52.578;8.138;2023-07-29T08:09:08;12.52;;;9.02;;
20411;SDS011;10365;52.578;8.138;2023-07-29T08:11:33;13.25;;;9.43;;
20411;SDS011;10365;52.578;8.138;2023-07-29T08:13:59;12.30;;;8.93;;
20411;SDS011;10365;52.578;8.138;2023-07-29T08:16:24;9.68;;;8.25;;
20411;SDS011;10365;52.578;8.138;2023-07-29T08:18:50;13.35;;;8.13;;
20411;SDS011;10365;52.578;8.138;2023-07-29T08:21:15;10.18;;;7.70;;
20411;SDS011;10365;52.578;8.138;2023-07-29T08:23:41;8.88;;;6.85;;
20411;SDS011;10365;52.578;8.138;2023-07-29T08:26:06;5.25;;;4.35;;
20411;SDS011;10365;52.578;8.138;2023-07-29T08:28:35;4.95;;;3.88;;
20411;SDS011;10365;52.578;8.138;2023-07-29T08:31:01;3.50;;;2.78;;
20411;SDS011;10365;52.578;8.138;2023-07-29T08:33:27;4.03;;;2.85;;
20411;SDS011;10365;52.578;8.138;2023-07-29T08:35:53;2.97;;;2.38;;
20411;SDS011;10365;52.578;8.138;2023-07-29T08:38:18;5.13;;;2.80;;
20411;SDS011;10365;52.578;8.138;2023-07-29T08:40:52;5.60;;;3.25;;
20411;SDS011;10365;52.578;8.138;2023-07-29T08:43:19;4.10;;;2.85;;
20411;SDS011;10365;52.578;8.138;2023-07-29T08:45:45;3.75;;;2.92;;
20411;SDS011;10365;52.578;8.138;2023-07-29T08:48:11;7.57;;;3.40;;
20411;SDS011;10365;52.578;8.138;2023-07-29T08:50:37;6.70;;;2.90;;
20411;SDS011;10365;52.578;8.138;2023-07-29T08:53:06;6.88;;;2.47;;
20411;SDS011;10365;52.578;8.138;2023-07-29T08:55:32;3.72;;;2.53;;
20411;SDS011;10365;52.578;8.138;2023-07-29T08:58:00;4.75;;;2.70;;
20411;SDS011;10365;52.578;8.138;2023-07-29T09:00:26;3.63;;;2.45;;
20411;SDS011;10365;52.578;8.138;2023-07-29T09:02:52;2.35;;;2.08;;
20411;SDS011;10365;52.578;8.138;2023-07-29T09:05:17;2.70;;;1.70;;
20411;SDS011;10365;52.578;8.138;2023-07-29T09:07:44;1.83;;;1.30;;
20411;SDS011;10365;52.578;8.138;2023-07-29T09:10:10;1.52;;;1.13;;
20411;SDS011;10365;52.578;8.138;2023-07-29T09:12:38;6.45;;;1.20;;
20411;SDS011;10365;52.578;8.138;2023-07-29T09:15:03;3.53;;;1.23;;
20411;SDS011;10365;52.578;8.138;2023-07-29T09:17:32;1.52;;;1.15;;
20411;SDS011;10365;52.578;8.138;2023-07-29T09:19:58;2.90;;;0.90;;
20411;SDS011;10365;52.578;8.138;2023-07-29T09:22:23;1.23;;;0.90;;
20411;SDS011;10365;52.578;8.138;2023-07-29T09:24:50;1.58;;;0.98;;
20411;SDS011;10365;52.578;8.138;2023-07-29T09:27:26;2.25;;;1.00;;
20411;SDS011;10365;52.578;8.138;2023-07-29T09:29:52;2.10;;;0.80;;
20411;SDS011;10365;52.578;8.138;2023-07-29T09:32:22;6.53;;;0.90;;
20411;SDS011;10365;52.578;8.138;2023-07-29T09:34:47;2.03;;;1.00;;
20411;SDS011;10365;52.578;8.138;2023-07-29T09:37:22;1.40;;;0.90;;
20411;SDS011;10365;52.578;8.138;2023-07-29T09:39:49;2.55;;;1.27;;
20411;SDS011;10365;52.578;8.138;2023-07-29T09:42:18;1.52;;;0.77;;
20411;SDS011;10365;52.578;8.138;2023-07-29T09:44:44;1.58;;;0.80;;
20411;SDS011;10365;52.578;8.138;2023-07-29T09:47:14;1.48;;;1.05;;
20411;SDS011;10365;52.578;8.138;2023-07-29T09:49:43;2.85;;;0.90;;
20411;SDS011;10365;52.578;8.138;2023-07-29T09:52:08;5.43;;;0.90;;
20411;SDS011;10365;52.578;8.138;2023-07-29T09:54:36;1.60;;;0.90;;
20411;SDS011;10365;52.578;8.138;2023-07-29T09:57:01;2.22;;;0.90;;
20411;SDS011;10365;52.578;8.138;2023-07-29T09:59:27;1.80;;;0.70;;
20411;SDS011;10365;52.578;8.138;2023-07-29T10:01:52;2.38;;;1.02;;
20411;SDS011;10365;52.578;8.138;2023-07-29T10:04:18;1.77;;;0.88;;
20411;SDS011;10365;52.578;8.138;2023-07-29T10:06:43;2.35;;;0.98;;
20411;SDS011;10365;52.578;8.138;2023-07-29T10:09:11;1.52;;;1.10;;
20411;SDS011;10365;52.578;8.138;2023-07-29T10:11:37;2.05;;;1.10;;
20411;SDS011;10365;52.578;8.138;2023-07-29T10:14:02;1.98;;;1.10;;
20411;SDS011;10365;52.578;8.138;2023-07-29T10:16:28;2.58;;;1.05;;
20411;SDS011;10365;52.578;8.138;2023-07-29T10:18:54;1.92;;;1.00;;
20411;SDS011;10365;52.578;8.138;2023-07-29T10:21:21;3.80;;;1.00;;
20411;SDS011;10365;52.578;8.138;2023-07-29T10:23:47;3.15;;;1.33;;
20411;SDS011;10365;52.578;8.138;2023-07-29T10:26:14;2.22;;;1.20;;
20411;SDS011;10365;52.578;8.138;2023-07-29T10:28:42;3.58;;;1.20;;
20411;SDS011;10365;52.578;8.138;2023-07-29T10:31:10;3.08;;;1.42;;
20411;SDS011;10365;52.578;8.138;2023-07-29T10:33:36;2.45;;;1.20;;
20411;SDS011;10365;52.578;8.138;2023-07-29T10:36:03;2.80;;;1.10;;
20411;SDS011;10365;52.578;8.138;2023-07-29T10:38:29;4.25;;;1.20;;
20411;SDS011;10365;52.578;8.138;2023-07-29T10:40:55;3.47;;;1.42;;
20411;SDS011;10365;52.578;8.138;2023-07-29T10:43:27;3.08;;;1.25;;
20411;SDS011;10365;52.578;8.138;2023-07-29T10:45:53;1.55;;;1.15;;
20411;SDS011;10365;52.578;8.138;2023-07-29T10:53:44;3.67;;;1.38;;
20411;SDS011;10365;52.578;8.138;2023-07-29T10:56:10;3.28;;;1.25;;
20411;SDS011;10365;52.578;8.138;2023-07-29T10:58:35;3.00;;;0.90;;
20411;SDS011;10365;52.578;8.138;2023-07-29T11:01:00;2.58;;;1.20;;
20411;SDS011;10365;52.578;8.138;2023-07-29T11:03:26;2.58;;;1.17;;
20411;SDS011;10365;52.578;8.138;2023-07-29T11:05:54;2.58;;;1.17;;
20411;SDS011;10365;52.578;8.138;2023-07-29T11:08:20;3.30;;;1.02;;
20411;SDS011;10365;52.578;8.138;2023-07-29T11:10:59;2.25;;;1.08;;
20411;SDS011;10365;52.578;8.138;2023-07-29T11:13:26;1.58;;;0.98;;
20411;SDS011;10365;52.578;8.138;2023-07-29T11:15:52;1.95;;;0.90;;
20411;SDS011;10365;52.578;8.138;2023-07-29T11:18:18;2.55;;;0.95;;
20411;SDS011;10365;52.578;8.138;2023-07-29T11:20:45;2.83;;;1.10;;
20411;SDS011;10365;52.578;8.138;2023-07-29T11:23:11;1.85;;;0.90;;
20411;SDS011;10365;52.578;8.138;2023-07-29T11:25:36;2.03;;;0.90;;
20411;SDS011;10365;52.578;8.138;2023-07-29T11:28:01;2.58;;;1.00;;
20411;SDS011;10365;52.578;8.138;2023-07-29T11:30:27;3.30;;;1.25;;
20411;SDS011;10365;52.578;8.138;2023-07-29T11:32:54;1.45;;;0.80;;
20411;SDS011;10365;52.578;8.138;2023-07-29T11:35:20;2.70;;;0.98;;
20411;SDS011;10365;52.578;8.138;2023-07-29T11:37:46;3.58;;;0.77;;
20411;SDS011;10365;52.578;8.138;2023-07-29T11:40:16;2.20;;;0.75;;
20411;SDS011;10365;52.578;8.138;2023-07-29T11:42:42;3.88;;;0.90;;
20411;SDS011;10365;52.578;8.138;2023-07-29T11:45:08;1.40;;;0.95;;
20411;SDS011;10365;52.578;8.138;2023-07-29T11:47:34;2.30;;;0.90;;
20411;SDS011;10365;52.578;8.138;2023-07-29T11:50:02;1.48;;;1.00;;
20411;SDS011;10365;52.578;8.138;2023-07-29T11:52:28;3.45;;;0.98;;
20411;SDS011;10365;52.578;8.138;2023-07-29T11:54:53;2.42;;;1.30;;
20411;SDS011;10365;52.578;8.138;2023-07-29T11:57:19;3.78;;;0.98;;
20411;SDS011;10365;52.578;8.138;2023-07-29T11:59:45;3.90;;;1.35;;
20411;SDS011;10365;52.578;8.138;2023-07-29T12:02:12;1.65;;;1.02;;
20411;SDS011;10365;52.578;8.138;2023-07-29T12:04:38;2.30;;;1.20;;
20411;SDS011;10365;52.578;8.138;2023-07-29T12:07:04;5.10;;;1.23;;
20411;SDS011;10365;52.578;8.138;2023-07-29T12:09:30;3.10;;;1.20;;
20411;SDS011;10365;52.578;8.138;2023-07-29T12:11:55;2.60;;;1.25;;
20411;SDS011;10365;52.578;8.138;2023-07-29T12:14:21;2.97;;;1.23;;
20411;SDS011;10365;52.578;8.138;2023-07-29T12:16:50;2.00;;;1.10;;
20411;SDS011;10365;52.578;8.138;2023-07-29T12:19:17;1.90;;;1.05;;
20411;SDS011;10365;52.578;8.138;2023-07-29T12:21:43;1.63;;;1.30;;
20411;SDS011;10365;52.578;8.138;2023-07-29T12:24:09;1.63;;;1.10;;
20411;SDS011;10365;52.578;8.138;2023-07-29T12:26:35;1.77;;;1.10;;
20411;SDS011;10365;52.578;8.138;2023-07-29T12:29:11;2.45;;;1.30;;
20411;SDS011;10365;52.578;8.138;2023-07-29T12:31:37;2.13;;;0.98;;
20411;SDS011;10365;52.578;8.138;2023-07-29T12:34:02;2.35;;;0.90;;
20411;SDS011;10365;52.578;8.138;2023-07-29T12:36:47;1.73;;;0.90;;
20411;SDS011;10365;52.578;8.138;2023-07-29T12:39:17;1.88;;;1.02;;
20411;SDS011;10365;52.578;8.138;2023-07-29T12:41:42;4.28;;;1.13;;
20411;SDS011;10365;52.578;8.138;2023-07-29T12:44:08;1.38;;;1.00;;
20411;SDS011;10365;52.578;8.138;2023-07-29T12:46:33;2.30;;;1.10;;
20411;SDS011;10365;52.578;8.138;2023-07-29T12:48:58;1.92;;;1.10;;
20411;SDS011;10365;52.578;8.138;2023-07-29T12:51:24;1.60;;;1.20;;
20411;SDS011;10365;52.578;8.138;2023-07-29T12:53:49;4.57;;;1.25;;
20411;SDS011;10365;52.578;8.138;2023-07-29T12:56:15;2.75;;;1.27;;
20411;SDS011;10365;52.578;8.138;2023-07-29T12:58:40;2.47;;;1.23;;
20411;SDS011;10365;52.578;8.138;2023-07-29T13:01:05;1.63;;;1.02;;
20411;SDS011;10365;52.578;8.138;2023-07-29T13:03:31;1.52;;;1.00;;
20411;SDS011;10365;52.578;8.138;2023-07-29T13:05:56;6.85;;;1.38;;
20411;SDS011;10365;52.578;8.138;2023-07-29T13:08:21;1.95;;;1.55;;
20411;SDS011;10365;52.578;8.138;2023-07-29T13:10:48;1.90;;;1.45;;
20411;SDS011;10365;52.578;8.138;2023-07-29T13:13:13;2.42;;;1.60;;
20411;SDS011;10365;52.578;8.138;2023-07-29T13:15:39;2.75;;;1.88;;
20411;SDS011;10365;52.578;8.138;2023-07-29T13:18:04;1.70;;;1.50;;
20411;SDS011;10365;52.578;8.138;2023-07-29T13:20:29;2.05;;;1.70;;
20411;SDS011;10365;52.578;8.138;2023-07-29T13:22:55;4.25;;;1.80;;
20411;SDS011;10365;52.578;8.138;2023-07-29T13:25:20;2.00;;;1.60;;
20411;SDS011;10365;52.578;8.138;2023-07-29T13:27:46;2.97;;;1.50;;
20411;SDS011;10365;52.578;8.138;2023-07-29T13:30:11;2.50;;;1.63;;
20411;SDS011;10365;52.578;8.138;2023-07-29T13:32:36;7.10;;;1.88;;
20411;SDS011;10365;52.578;8.138;2023-07-29T13:35:02;5.35;;;1.58;;
20411;SDS011;10365;52.578;8.138;2023-07-29T13:37:27;3.85;;;1.77;;
20411;SDS011;10365;52.578;8.138;2023-07-29T13:39:52;2.25;;;1.80;;
20411;SDS011;10365;52.578;8.138;2023-07-29T13:42:18;2.17;;;1.50;;
20411;SDS011;10365;52.578;8.138;2023-07-29T13:44:43;2.10;;;1.55;;
20411;SDS011;10365;52.578;8.138;2023-07-29T13:47:08;2.55;;;1.55;;
20411;SDS011;10365;52.578;8.138;2023-07-29T13:49:34;4.85;;;1.63;;
20411;SDS011;10365;52.578;8.138;2023-07-29T13:51:59;3.40;;;1.60;;
20411;SDS011;10365;52.578;8.138;2023-07-29T13:54:25;3.88;;;1.80;;
20411;SDS011;10365;52.578;8.138;2023-07-29T13:56:50;2.20;;;1.30;;
20411;SDS011;10365;52.578;8.138;2023-07-29T13:59:16;1.90;;;1.38;;
20411;SDS011;10365;52.578;8.138;2023-07-29T14:01:41;2.72;;;1.60;;
20411;SDS011;10365;52.578;8.138;2023-07-29T14:04:06;4.00;;;1.40;;
20411;SDS011;10365;52.578;8.138;2023-07-29T14:06:32;1.80;;;1.38;;
20411;SDS011;10365;52.578;8.138;2023-07-29T14:08:57;3.58;;;1.60;;
20411;SDS011;10365;52.578;8.138;2023-07-29T14:11:22;2.35;;;1.50;;
20411;SDS011;10365;52.578;8.138;2023-07-29T14:13:48;3.35;;;1.42;;
20411;SDS011;10365;52.578;8.138;2023-07-29T14:16:13;1.73;;;1.20;;
20411;SDS011;10365;52.578;8.138;2023-07-29T14:18:38;5.10;;;1.60;;
20411;SDS011;10365;52.578;8.138;2023-07-29T14:21:04;2.05;;;1.65;;
20411;SDS011;10365;52.578;8.138;2023-07-29T14:23:29;2.40;;;1.50;;
20411;SDS011;10365;52.578;8.138;2023-07-29T14:25:55;4.00;;;1.40;;
20411;SDS011;10365;52.578;8.138;2023-07-29T14:28:20;4.30;;;1.48;;
20411;SDS011;10365;52.578;8.138;2023-07-29T14:30:46;3.20;;;1.60;;
20411;SDS011;10365;52.578;8.138;2023-07-29T14:33:11;1.45;;;1.30;;
20411;SDS011;10365;52.578;8.138;2023-07-29T14:35:37;2.80;;;1.50;;
20411;SDS011;10365;52.578;8.138;2023-07-29T14:38:02;3.13;;;1.45;;
20411;SDS011;10365;52.578;8.138;2023-07-29T14:40:27;1.17;;;1.08;;
20411;SDS011;10365;52.578;8.138;2023-07-29T14:42:53;2.13;;;1.15;;
20411;SDS011;10365;52.578;8.138;2023-07-29T14:45:18;2.40;;;1.67;;